Terminal Aerodrome Forecast
Issued by NWS

Home | Current Version | Previous Version | Text Only | Print | Product List | Glossary On
Versions: 1 2 3 4 5 6 7 8 9 10 11 12 13 14 15 16 17 18 19 20 21 22 23
000
FTUS46 KLOX 041135
TAFOXR
TAF
KOXR 041135Z 0412/0512 VRB03KT P6SM OVC035
     FM042000 26012KT P6SM SCT030
     FM050300 26006KT P6SM BKN025=

USA.gov is the U.S. government's official web portal to all federal, state and local government web resources and services.